Time;durP1;ratioP1;P1;durP2;ratioP2;P2;SDS_P1;SDS_P2;PMS_P1;PMS_P2;Temp;Humidity;BMP_temperature;BMP_pressure;BME280_temperature;BME280_humidity;BME280_pressure;Samples;Min_cycle;Max_cycle;Signal;HPM_P1;HPM_P2
2022/10/16 00:02:44;;;;;;;2.42;1.50;;;16.90;77.40;;;;;;10365024;28;20733;-58
2022/10/16 00:07:45;;;;;;;2.80;2.08;;;16.90;77.30;;;;;;10367985;28;20132;-58
2022/10/16 00:12:45;;;;;;;2.60;1.45;;;16.90;77.30;;;;;;10369476;28;20021;-58
2022/10/16 00:17:46;;;;;;;2.75;1.70;;;16.90;77.20;;;;;;10364769;28;20095;-59
2022/10/16 00:22:47;;;;;;;2.60;1.65;;;16.90;77.20;;;;;;10364564;28;20030;-59
2022/10/16 00:27:47;;;;;;;2.13;1.58;;;16.90;77.30;;;;;;10365744;28;20018;-59
2022/10/16 00:32:48;;;;;;;3.90;1.83;;;16.90;77.20;;;;;;10364100;28;20108;-58
2022/10/16 00:37:49;;;;;;;3.03;1.73;;;16.90;77.10;;;;;;10364831;28;20592;-58
2022/10/16 00:42:50;;;;;;;2.85;1.48;;;16.90;77.10;;;;;;10363483;28;20748;-58
2022/10/16 00:47:53;;;;;;;3.20;1.60;;;16.90;77.10;;;;;;10365009;28;20049;-57
2022/10/16 00:52:55;;;;;;;2.60;1.70;;;16.90;77.00;;;;;;10362490;28;20030;-58
2022/10/16 00:57:57;;;;;;;2.13;1.33;;;16.90;77.10;;;;;;10363650;28;20527;-59
2022/10/16 01:03:02;;;;;;;2.22;1.67;;;16.90;77.00;;;;;;10364917;28;20115;-58
2022/10/16 01:08:27;;;;;;;2.35;1.58;;;16.90;77.00;;;;;;10368683;28;20028;-58
2022/10/16 01:13:40;;;;;;;2.38;1.38;;;16.90;77.00;;;;;;10364382;28;20029;-58
2022/10/16 01:18:51;;;;;;;2.03;1.30;;;16.90;76.90;;;;;;10373294;28;20044;-59
2022/10/16 01:24:26;;;;;;;2.10;1.42;;;16.80;76.90;;;;;;10363072;28;20037;-59
2022/10/16 01:29:48;;;;;;;2.88;1.60;;;16.80;76.80;;;;;;10375943;28;20084;-58
2022/10/16 01:35:32;;;;;;;3.17;1.70;;;16.80;76.90;;;;;;10362260;28;20022;-59
2022/10/16 01:40:36;;;;;;;1.90;1.30;;;16.80;76.90;;;;;;10363489;28;20054;-59
2022/10/16 01:45:37;;;;;;;2.47;1.60;;;16.80;76.90;;;;;;10363020;28;20033;-58
2022/10/16 01:50:41;;;;;;;4.20;2.38;;;16.90;76.90;;;;;;10362300;28;20128;-59
2022/10/16 01:55:46;;;;;;;1.95;1.38;;;16.80;76.90;;;;;;10362592;28;20018;-58
2022/10/16 02:00:48;;;;;;;2.45;1.58;;;16.80;77.00;;;;;;10361949;28;20026;-59
2022/10/16 02:05:55;;;;;;;2.88;1.45;;;16.80;76.90;;;;;;10362273;28;20029;-59
2022/10/16 02:10:57;;;;;;;3.08;1.83;;;16.80;76.80;;;;;;10371825;28;20026;-59
2022/10/16 02:15:58;;;;;;;3.15;1.58;;;16.80;76.90;;;;;;10362067;28;20056;-59
2022/10/16 02:21:10;;;;;;;2.88;1.60;;;16.80;76.80;;;;;;10363606;28;20018;-58
2022/10/16 02:26:17;;;;;;;3.33;1.40;;;16.80;76.80;;;;;;10363190;28;20378;-59
2022/10/16 02:31:27;;;;;;;2.10;1.10;;;16.80;76.80;;;;;;10362449;28;20033;-57
2022/10/16 02:36:28;;;;;;;3.00;1.63;;;16.80;76.80;;;;;;10380475;28;20424;-58
2022/10/16 02:41:29;;;;;;;2.05;1.80;;;16.80;76.80;;;;;;10367423;28;20046;-59
2022/10/16 02:46:29;;;;;;;2.70;1.50;;;16.80;76.80;;;;;;10368631;28;20112;-59
2022/10/16 02:51:30;;;;;;;2.50;1.40;;;16.80;76.90;;;;;;10368424;28;20413;-58
2022/10/16 02:56:31;;;;;;;2.42;1.17;;;16.80;76.80;;;;;;10369463;28;20026;-59
2022/10/16 03:01:31;;;;;;;2.60;1.40;;;16.80;76.70;;;;;;10367570;28;20034;-58
2022/10/16 03:06:32;;;;;;;2.50;1.55;;;16.80;76.70;;;;;;10369159;28;20103;-59
2022/10/16 03:11:33;;;;;;;1.75;1.15;;;16.80;76.70;;;;;;10374764;28;20045;-57
2022/10/16 03:16:33;;;;;;;2.50;1.60;;;16.70;76.60;;;;;;10368662;28;20056;-59
2022/10/16 03:21:34;;;;;;;2.22;1.30;;;16.80;76.70;;;;;;10367010;28;20476;-59
2022/10/16 03:26:35;;;;;;;2.15;1.40;;;16.70;76.60;;;;;;10368189;28;20026;-58
2022/10/16 03:31:36;;;;;;;3.03;1.63;;;16.70;76.70;;;;;;10368102;28;20076;-59
2022/10/16 03:36:37;;;;;;;2.72;1.45;;;16.70;76.60;;;;;;10367733;28;20472;-58
2022/10/16 03:41:37;;;;;;;2.58;1.52;;;16.70;76.70;;;;;;10379400;28;20533;-58
2022/10/16 03:46:38;;;;;;;3.80;1.92;;;16.70;76.60;;;;;;10367449;28;20026;-58
2022/10/16 03:51:39;;;;;;;1.75;1.10;;;16.70;76.60;;;;;;10365834;28;20461;-58
2022/10/16 03:56:39;;;;;;;2.92;1.48;;;16.80;76.60;;;;;;10365573;28;20022;-57
2022/10/16 04:01:40;;;;;;;1.73;1.17;;;16.70;76.50;;;;;;10366949;28;20065;-58
2022/10/16 04:06:41;;;;;;;1.90;1.17;;;16.70;76.50;;;;;;10364926;28;20520;-59
2022/10/16 04:11:41;;;;;;;2.30;1.58;;;16.70;76.60;;;;;;10367831;28;20064;-59
2022/10/16 04:16:42;;;;;;;1.88;1.10;;;16.70;76.50;;;;;;10364946;28;20101;-58
2022/10/16 04:21:42;;;;;;;2.15;1.58;;;16.70;76.50;;;;;;10363856;28;20061;-59
2022/10/16 04:26:43;;;;;;;2.33;1.23;;;16.70;76.40;;;;;;10364858;28;20124;-59
2022/10/16 04:31:44;;;;;;;2.47;1.63;;;16.70;76.40;;;;;;10364018;28;20795;-58
2022/10/16 04:36:48;;;;;;;2.30;1.52;;;16.70;76.40;;;;;;10364188;28;20054;-58
2022/10/16 04:41:49;;;;;;;1.98;1.25;;;16.70;76.40;;;;;;10365562;28;20042;-58
2022/10/16 04:46:52;;;;;;;2.00;1.30;;;16.70;76.40;;;;;;10365285;28;20046;-58
2022/10/16 04:51:53;;;;;;;1.05;0.80;;;16.70;76.40;;;;;;10365130;28;20527;-59
2022/10/16 04:56:54;;;;;;;1.27;1.02;;;16.70;76.30;;;;;;10363021;28;20030;-58
2022/10/16 05:01:54;;;;;;;3.17;1.33;;;16.70;76.30;;;;;;10364373;28;20036;-58
2022/10/16 05:06:55;;;;;;;5.63;1.45;;;16.70;76.30;;;;;;10364590;28;20525;-61
2022/10/16 05:11:56;;;;;;;5.60;1.40;;;16.80;77.00;;;;;;10374884;28;20037;-60
2022/10/16 05:16:56;;;;;;;4.38;1.60;;;16.80;76.90;;;;;;10363228;28;20568;-59
2022/10/16 05:21:57;;;;;;;8.55;2.20;;;16.90;77.20;;;;;;10363116;28;20049;-58
2022/10/16 05:26:58;;;;;;;8.85;2.10;;;16.90;77.40;;;;;;10363110;28;20492;-57
2022/10/16 05:31:58;;;;;;;10.40;2.75;;;17.00;77.50;;;;;;10374203;28;20116;-58
2022/10/16 05:36:59;;;;;;;10.95;2.80;;;16.90;77.60;;;;;;10362378;28;20110;-58
2022/10/16 05:42:00;;;;;;;7.65;1.88;;;17.00;77.60;;;;;;10363359;28;20413;-57
2022/10/16 05:47:00;;;;;;;6.25;1.75;;;17.00;77.50;;;;;;10366581;28;20022;-59
2022/10/16 05:52:01;;;;;;;6.32;1.92;;;17.00;77.60;;;;;;10367570;28;20030;-58
2022/10/16 05:57:02;;;;;;;12.75;1.85;;;17.00;77.30;;;;;;10365896;28;20087;-58
2022/10/16 06:02:02;;;;;;;12.20;2.50;;;16.90;77.40;;;;;;10363333;28;20141;-59
2022/10/16 06:07:03;;;;;;;7.05;2.35;;;16.90;77.50;;;;;;10367221;28;20018;-59
2022/10/16 06:12:04;;;;;;;10.90;2.28;;;16.90;77.40;;;;;;10383311;28;20109;-59
2022/10/16 06:17:04;;;;;;;11.13;3.10;;;16.90;77.30;;;;;;10373386;28;20110;-60
2022/10/16 06:22:06;;;;;;;6.97;1.65;;;16.90;77.30;;;;;;10347300;28;20489;-60
2022/10/16 06:27:06;;;;;;;10.40;2.80;;;16.80;77.20;;;;;;10370462;28;20022;-61
2022/10/16 06:32:07;;;;;;;5.85;1.88;;;16.80;77.30;;;;;;10369349;28;20440;-60
2022/10/16 06:37:08;;;;;;;5.43;1.70;;;16.70;77.20;;;;;;10369661;28;20452;-59
2022/10/16 06:42:08;;;;;;;7.13;1.63;;;16.70;77.10;;;;;;10368505;28;20121;-60
2022/10/16 06:47:10;;;;;;;4.60;1.23;;;16.70;77.00;;;;;;10370930;28;20097;-60
2022/10/16 06:52:10;;;;;;;8.63;1.77;;;16.70;77.00;;;;;;10371007;28;20030;-60
2022/10/16 06:57:11;;;;;;;5.35;1.88;;;16.70;76.90;;;;;;10373330;28;20129;-60
2022/10/16 07:02:12;;;;;;;5.28;1.40;;;16.70;77.00;;;;;;10372185;28;20099;-60
2022/10/16 07:07:12;;;;;;;6.93;1.45;;;16.70;76.90;;;;;;10385638;28;20045;-60
2022/10/16 07:12:13;;;;;;;6.90;1.88;;;16.70;76.80;;;;;;10381355;28;20073;-60
2022/10/16 07:17:13;;;;;;;4.15;1.60;;;16.70;76.90;;;;;;10367214;28;20104;-60
2022/10/16 07:22:14;;;;;;;5.28;1.67;;;16.70;76.90;;;;;;10368113;28;20041;-60
2022/10/16 07:27:16;;;;;;;5.90;1.83;;;16.70;76.90;;;;;;10369810;28;20101;-59
2022/10/16 07:32:17;;;;;;;2.97;1.40;;;16.70;76.90;;;;;;10377854;28;20049;-58
2022/10/16 07:37:17;;;;;;;3.92;1.33;;;16.70;76.90;;;;;;10364845;28;20107;-60
2022/10/16 07:42:19;;;;;;;3.78;1.50;;;16.70;76.90;;;;;;10364113;28;20121;-61
2022/10/16 07:47:20;;;;;;;8.38;2.17;;;16.60;76.80;;;;;;10364573;28;20030;-60
2022/10/16 07:52:21;;;;;;;9.05;1.80;;;16.80;77.20;;;;;;10366783;28;20139;-55
2022/10/16 07:57:21;;;;;;;6.53;1.67;;;16.80;77.30;;;;;;10366945;28;20509;-61
2022/10/16 08:02:22;;;;;;;7.40;2.00;;;17.00;77.10;;;;;;10365353;28;20456;-60
2022/10/16 08:07:23;;;;;;;16.90;2.85;;;17.00;77.70;;;;;;10364965;28;20061;-59
2022/10/16 08:12:24;;;;;;;11.98;1.90;;;17.00;77.40;;;;;;10366672;28;20030;-59
2022/10/16 08:17:24;;;;;;;9.95;2.25;;;17.00;77.50;;;;;;10365451;28;20014;-59
2022/10/16 08:22:25;;;;;;;14.90;2.67;;;17.00;77.20;;;;;;10364957;28;20129;-60
2022/10/16 08:27:32;;;;;;;9.95;2.22;;;16.90;77.50;;;;;;10364080;28;20105;-60
2022/10/16 08:32:33;;;;;;;9.52;2.40;;;16.90;77.50;;;;;;10374365;28;20033;-60
2022/10/16 08:37:33;;;;;;;5.68;1.70;;;16.80;77.40;;;;;;10363730;28;20157;-60
2022/10/16 08:42:53;;;;;;;9.75;3.22;;;16.80;77.50;;;;;;10360612;28;20689;-60
2022/10/16 08:48:11;;;;;;;6.53;2.00;;;16.80;77.40;;;;;;10362708;28;20014;-61
2022/10/16 08:53:44;;;;;;;7.50;2.15;;;16.80;77.30;;;;;;10363628;28;20109;-61
2022/10/16 08:58:47;;;;;;;6.32;2.15;;;16.80;77.30;;;;;;10363985;28;20556;-60
2022/10/16 09:04:18;;;;;;;7.25;1.77;;;16.90;77.30;;;;;;10347083;28;20095;-58
2022/10/16 09:10:02;;;;;;;10.88;1.90;;;16.90;77.30;;;;;;10374207;28;20076;-60
2022/10/16 09:15:40;;;;;;;5.82;2.28;;;16.90;77.20;;;;;;10379315;28;20026;-60
2022/10/16 09:21:25;;;;;;;6.63;1.90;;;16.90;77.20;;;;;;10364011;28;20104;-60
2022/10/16 09:26:25;;;;;;;4.88;1.70;;;16.90;77.20;;;;;;10362928;28;20033;-60
2022/10/16 09:31:26;;;;;;;6.40;3.03;;;17.00;77.30;;;;;;10361589;28;20062;-60
2022/10/16 09:36:28;;;;;;;7.60;2.22;;;17.00;77.20;;;;;;10361986;28;20126;-59
2022/10/16 09:41:29;;;;;;;8.95;2.38;;;17.00;77.30;;;;;;10361204;28;20049;-59
2022/10/16 09:46:35;;;;;;;7.18;1.75;;;17.10;77.20;;;;;;10363360;28;20420;-60
2022/10/16 09:51:37;;;;;;;3.30;1.52;;;17.10;77.10;;;;;;10362189;28;20412;-59
2022/10/16 09:56:41;;;;;;;4.45;1.90;;;17.10;77.10;;;;;;10361751;28;20113;-61
2022/10/16 10:01:53;;;;;;;5.25;1.58;;;17.20;77.00;;;;;;10375567;28;20034;-61
2022/10/16 10:06:56;;;;;;;11.00;1.95;;;17.20;77.00;;;;;;10357941;28;20357;-61
2022/10/16 10:12:02;;;;;;;21.05;3.10;;;17.30;77.10;;;;;;10359410;28;20061;-59
2022/10/16 10:17:06;;;;;;;18.30;2.63;;;17.30;77.30;;;;;;10350177;28;20233;-60
2022/10/16 10:22:27;;;;;;;11.07;3.00;;;17.40;77.80;;;;;;10357988;28;20168;-60
2022/10/16 10:28:08;;;;;;;11.70;3.03;;;17.40;78.00;;;;;;10356311;28;20026;-58
2022/10/16 10:33:12;;;;;;;9.32;2.55;;;17.50;78.40;;;;;;10360799;28;20028;-60
2022/10/16 10:38:30;;;;;;;11.80;2.95;;;17.50;78.60;;;;;;10374698;28;20073;-61
2022/10/16 10:43:55;;;;;;;8.55;2.50;;;17.50;78.60;;;;;;10359729;28;20053;-60
2022/10/16 10:49:15;;;;;;;7.65;2.13;;;17.50;78.30;;;;;;10358186;28;20018;-61
2022/10/16 10:54:44;;;;;;;8.20;2.25;;;17.60;78.20;;;;;;10367142;28;20064;-58
2022/10/16 11:00:23;;;;;;;7.82;2.40;;;17.60;78.10;;;;;;10366082;28;20022;-58
2022/10/16 11:05:45;;;;;;;10.02;2.20;;;17.60;78.20;;;;;;10351991;28;20054;-59
2022/10/16 11:11:04;;;;;;;13.00;2.85;;;17.60;78.70;;;;;;10374892;28;20097;-58
2022/10/16 11:16:42;;;;;;;6.13;2.43;;;17.70;78.20;;;;;;10378395;28;20056;-57
2022/10/16 11:21:54;;;;;;;7.53;2.40;;;17.70;78.10;;;;;;10365659;28;20433;-58
2022/10/16 11:26:56;;;;;;;9.15;2.67;;;17.70;78.20;;;;;;10364557;28;20068;-56
2022/10/16 11:32:37;;;;;;;10.18;2.53;;;17.70;78.30;;;;;;10363161;28;20022;-56
2022/10/16 11:37:44;;;;;;;15.05;2.80;;;17.80;78.40;;;;;;10361997;28;20060;-56
2022/10/16 11:42:54;;;;;;;12.07;2.03;;;17.70;78.30;;;;;;10350894;28;20754;-55
2022/10/16 11:48:14;;;;;;;15.00;3.55;;;17.70;78.30;;;;;;10363370;28;20018;-57
2022/10/16 11:54:10;;;;;;;9.02;2.53;;;17.70;78.20;;;;;;10363412;28;20026;-56
2022/10/16 11:59:24;;;;;;;12.60;2.50;;;17.70;78.10;;;;;;10339401;28;20135;-55
2022/10/16 12:04:45;;;;;;;9.88;2.67;;;17.60;78.10;;;;;;10357397;28;20104;-56
2022/10/16 12:09:46;;;;;;;9.80;2.97;;;17.70;78.00;;;;;;10372121;28;20515;-57
2022/10/16 12:14:46;;;;;;;7.07;2.35;;;17.60;78.00;;;;;;10363284;28;20061;-56
2022/10/16 12:20:11;;;;;;;6.18;2.10;;;17.70;78.00;;;;;;10363880;28;20882;-55
2022/10/16 12:25:33;;;;;;;4.57;1.80;;;17.70;77.90;;;;;;10363650;28;20065;-56
2022/10/16 12:30:36;;;;;;;4.57;1.95;;;17.70;77.80;;;;;;10363364;28;20058;-56
2022/10/16 12:35:47;;;;;;;5.75;2.30;;;17.60;77.80;;;;;;10362536;28;20041;-56
2022/10/16 12:41:06;;;;;;;8.35;2.05;;;17.60;77.80;;;;;;10374954;28;20053;-60
2022/10/16 12:46:10;;;;;;;6.88;2.33;;;17.60;77.80;;;;;;10361392;28;20040;-56
2022/10/16 12:51:33;;;;;;;10.35;2.55;;;17.60;77.80;;;;;;10360737;28;20093;-57
2022/10/16 12:57:09;;;;;;;4.78;1.88;;;17.60;77.80;;;;;;10361333;28;20617;-57
2022/10/16 13:02:56;;;;;;;10.68;3.10;;;17.60;77.60;;;;;;10362193;28;20029;-56
2022/10/16 13:08:39;;;;;;;9.18;2.22;;;17.60;77.40;;;;;;10365955;28;20680;-57
2022/10/16 13:14:24;;;;;;;5.78;2.10;;;17.60;77.30;;;;;;10360082;28;20011;-55
2022/10/16 13:19:56;;;;;;;6.15;1.83;;;17.60;77.30;;;;;;10361735;28;20014;-56
2022/10/16 13:25:52;;;;;;;3.05;2.08;;;17.60;77.40;;;;;;10360516;28;20030;-56
2022/10/16 13:30:57;;;;;;;8.40;2.17;;;17.60;77.20;;;;;;10361484;28;20124;-57
2022/10/16 13:35:58;;;;;;;4.63;1.73;;;17.60;77.20;;;;;;10360152;28;20033;-57
2022/10/16 13:41:05;;;;;;;7.95;2.50;;;17.60;77.20;;;;;;10359992;28;20507;-56
2022/10/16 13:46:13;;;;;;;8.18;2.20;;;17.60;77.20;;;;;;10360996;28;20563;-56
2022/10/16 13:51:17;;;;;;;7.63;2.17;;;17.60;77.10;;;;;;10359562;28;20033;-57
2022/10/16 13:56:22;;;;;;;5.35;2.55;;;17.60;77.20;;;;;;10359613;28;20021;-55
2022/10/16 14:01:27;;;;;;;6.50;2.10;;;17.60;77.10;;;;;;10358668;28;20022;-56
2022/10/16 14:06:28;;;;;;;10.90;2.38;;;17.60;77.60;;;;;;10359429;28;20017;-56
2022/10/16 14:11:29;;;;;;;10.32;2.17;;;17.70;77.40;;;;;;10368687;28;20091;-61
2022/10/16 14:16:32;;;;;;;10.27;2.47;;;17.70;77.40;;;;;;10359243;28;20428;-56
2022/10/16 14:21:34;;;;;;;23.15;5.10;;;17.70;77.60;;;;;;10359010;28;20049;-57
2022/10/16 14:26:44;;;;;;;25.02;8.13;;;17.80;78.20;;;;;;10359311;28;20021;-57
2022/10/16 14:31:55;;;;;;;21.80;10.13;;;17.80;79.00;;;;;;10357402;28;20036;-57
2022/10/16 14:36:57;;;;;;;21.88;7.60;;;17.90;78.60;;;;;;10383247;28;20226;-57
2022/10/16 14:41:58;;;;;;;21.42;9.60;;;17.90;78.60;;;;;;10367365;28;20042;-57
2022/10/16 14:47:13;;;;;;;43.05;7.03;;;17.80;80.00;;;;;;10366663;28;20037;-57
2022/10/16 14:52:14;;;;;;;27.05;7.97;;;17.70;77.80;;;;;;10366186;28;20030;-57
2022/10/16 14:57:26;;;;;;;23.05;5.45;;;17.70;77.90;;;;;;10366872;28;20021;-57
2022/10/16 15:02:34;;;;;;;32.33;5.90;;;17.60;77.80;;;;;;10362524;28;20056;-56
2022/10/16 15:07:34;;;;;;;19.73;4.72;;;17.60;77.50;;;;;;10366634;28;20026;-60
2022/10/16 15:12:35;;;;;;;21.35;3.97;;;17.70;77.60;;;;;;10364366;28;20116;-60
2022/10/16 15:17:36;;;;;;;20.45;4.72;;;17.70;77.40;;;;;;10364669;28;20521;-59
2022/10/16 15:22:36;;;;;;;36.35;6.18;;;17.70;77.80;;;;;;10364308;28;20117;-58
2022/10/16 15:27:39;;;;;;;41.13;6.95;;;17.60;77.80;;;;;;10364347;28;20152;-58
2022/10/16 15:32:40;;;;;;;23.30;4.88;;;17.60;78.10;;;;;;10364945;28;20040;-57
2022/10/16 15:37:41;;;;;;;31.02;5.93;;;17.60;78.00;;;;;;10364892;28;20076;-57
2022/10/16 15:42:41;;;;;;;17.48;3.97;;;17.60;78.10;;;;;;10365034;28;20489;-60
2022/10/16 15:47:42;;;;;;;30.52;5.68;;;17.60;78.10;;;;;;10365776;28;20076;-59
2022/10/16 15:52:43;;;;;;;37.10;5.35;;;17.60;77.80;;;;;;10377236;28;20022;-59
2022/10/16 15:57:45;;;;;;;35.90;5.97;;;17.60;77.80;;;;;;10362770;28;20034;-58
2022/10/16 16:02:53;;;;;;;30.23;9.05;;;17.60;77.80;;;;;;10364386;28;20692;-58
2022/10/16 16:07:54;;;;;;;30.02;5.78;;;17.80;80.50;;;;;;10366897;28;20029;-56
2022/10/16 16:12:55;;;;;;;27.02;7.78;;;17.90;79.70;;;;;;10379178;28;20625;-59
2022/10/16 16:17:55;;;;;;;24.88;7.80;;;18.00;79.20;;;;;;10368404;28;20053;-60
2022/10/16 16:22:56;;;;;;;27.55;5.88;;;18.10;80.00;;;;;;10362795;28;20041;-57
2022/10/16 16:27:57;;;;;;;19.75;5.80;;;18.10;80.00;;;;;;10375799;28;20111;-58
2022/10/16 16:32:57;;;;;;;27.25;6.03;;;18.10;79.90;;;;;;10362236;28;20089;-59
2022/10/16 16:37:58;;;;;;;20.52;5.45;;;18.00;79.90;;;;;;10360781;28;20554;-62
2022/10/16 16:42:59;;;;;;;20.35;5.57;;;17.90;79.70;;;;;;10380130;28;20096;-60
2022/10/16 16:47:59;;;;;;;23.05;5.97;;;17.90;79.90;;;;;;10364066;28;20060;-60
2022/10/16 16:53:00;;;;;;;22.70;6.55;;;17.90;79.70;;;;;;10364383;28;20046;-60
2022/10/16 16:58:02;;;;;;;22.10;5.63;;;17.70;79.80;;;;;;10379435;28;20022;-61
2022/10/16 17:03:03;;;;;;;26.25;7.95;;;17.70;79.90;;;;;;10363585;28;20558;-60
2022/10/16 17:08:07;;;;;;;16.38;4.72;;;17.70;80.50;;;;;;10368951;28;20021;-60
2022/10/16 17:13:07;;;;;;;18.30;4.90;;;17.70;80.40;;;;;;10358930;28;20500;-59
2022/10/16 17:18:08;;;;;;;18.17;4.93;;;17.60;80.20;;;;;;10360149;28;20101;-59
2022/10/16 17:23:11;;;;;;;18.23;4.72;;;17.60;80.00;;;;;;10360883;28;20446;-59
2022/10/16 17:28:12;;;;;;;12.15;3.97;;;17.70;80.10;;;;;;10361672;28;20018;-58
2022/10/16 17:33:13;;;;;;;16.40;3.65;;;17.70;79.90;;;;;;10360120;28;20029;-58
2022/10/16 17:38:15;;;;;;;14.88;3.88;;;17.60;80.00;;;;;;10358356;28;20423;-59
2022/10/16 17:43:16;;;;;;;11.68;4.50;;;17.60;80.10;;;;;;10360630;28;20050;-59
2022/10/16 17:48:16;;;;;;;14.57;4.50;;;17.60;80.10;;;;;;10361727;28;20216;-59
2022/10/16 17:53:17;;;;;;;13.45;6.25;;;17.60;80.00;;;;;;10358950;28;20059;-58
2022/10/16 17:58:18;;;;;;;15.57;6.30;;;17.60;80.00;;;;;;10355468;28;20057;-59
2022/10/16 18:03:18;;;;;;;13.90;8.75;;;17.60;80.00;;;;;;10363172;28;20487;-57
2022/10/16 18:08:19;;;;;;;13.20;8.23;;;17.60;79.70;;;;;;10373894;28;20101;-58
2022/10/16 18:13:20;;;;;;;14.25;9.50;;;17.60;79.70;;;;;;10368772;28;20033;-58
2022/10/16 18:18:21;;;;;;;11.60;9.25;;;17.60;79.70;;;;;;10368367;28;20431;-59
2022/10/16 18:23:21;;;;;;;107.97;98.80;;;17.50;79.60;;;;;;10366392;28;20130;-59
2022/10/16 18:28:22;;;;;;;36.75;33.17;;;17.60;80.10;;;;;;10381659;28;20105;-59
2022/10/16 18:33:23;;;;;;;30.35;27.30;;;17.60;80.00;;;;;;10372931;28;20059;-60
2022/10/16 18:38:24;;;;;;;35.05;31.48;;;17.70;79.60;;;;;;10368132;28;20056;-60
2022/10/16 18:43:25;;;;;;;40.38;36.60;;;17.60;79.20;;;;;;10368235;28;20085;-59
2022/10/16 18:48:26;;;;;;;33.97;30.73;;;17.60;79.60;;;;;;10367226;28;20026;-59
2022/10/16 18:53:27;;;;;;;49.25;34.63;;;17.60;79.50;;;;;;10383829;28;20025;-58
2022/10/16 18:58:28;;;;;;;35.65;32.15;;;17.70;79.60;;;;;;10368443;28;20073;-59
2022/10/16 19:03:28;;;;;;;33.55;30.45;;;17.60;79.30;;;;;;10367500;28;20037;-59
2022/10/16 19:08:32;;;;;;;34.17;30.92;;;17.60;79.50;;;;;;10376474;28;20037;-60
2022/10/16 19:13:33;;;;;;;31.77;29.05;;;17.60;79.50;;;;;;10367934;28;20034;-59
2022/10/16 19:18:37;;;;;;;30.00;27.10;;;17.60;79.60;;;;;;10367585;28;20026;-59
2022/10/16 19:23:38;;;;;;;30.63;27.60;;;17.60;79.60;;;;;;10351462;28;20120;-60
2022/10/16 19:28:40;;;;;;;28.50;25.65;;;17.60;79.60;;;;;;10367204;28;20161;-59
2022/10/16 19:33:41;;;;;;;27.17;24.58;;;17.60;79.60;;;;;;10365938;28;20021;-61
2022/10/16 19:38:43;;;;;;;27.35;24.45;;;17.60;79.70;;;;;;10382613;28;20026;-60
2022/10/16 19:43:45;;;;;;;25.60;23.10;;;17.60;79.40;;;;;;10352041;28;20047;-60
2022/10/16 19:48:47;;;;;;;25.92;23.33;;;17.50;79.30;;;;;;10366270;28;20049;-59
2022/10/16 19:53:52;;;;;;;27.73;24.70;;;17.50;80.10;;;;;;10364566;28;20470;-60
2022/10/16 19:58:55;;;;;;;25.30;23.13;;;17.50;80.10;;;;;;10364506;28;20079;-60
2022/10/16 20:03:56;;;;;;;26.63;24.17;;;17.50;79.50;;;;;;10377374;28;20373;-59
2022/10/16 20:08:58;;;;;;;26.33;23.58;;;17.50;79.50;;;;;;10375128;28;20030;-59
2022/10/16 20:14:00;;;;;;;24.98;22.42;;;17.50;79.40;;;;;;10366558;28;20042;-60
2022/10/16 20:19:01;;;;;;;23.52;21.15;;;17.50;79.40;;;;;;10365401;28;20065;-59
2022/10/16 20:24:05;;;;;;;22.58;20.38;;;17.50;79.30;;;;;;10365064;28;20358;-60
2022/10/16 20:29:06;;;;;;;20.65;18.90;;;17.50;79.70;;;;;;10364786;28;20053;-61
2022/10/16 20:34:11;;;;;;;21.58;19.58;;;17.50;78.90;;;;;;10377157;28;20105;-59
2022/10/16 20:39:14;;;;;;;20.67;18.55;;;17.50;78.90;;;;;;10364614;28;20029;-59
2022/10/16 20:44:15;;;;;;;19.90;18.02;;;17.50;78.80;;;;;;10365364;28;20120;-59
2022/10/16 20:49:16;;;;;;;18.52;16.77;;;17.50;78.70;;;;;;10364129;28;20104;-59
2022/10/16 20:54:16;;;;;;;18.30;16.67;;;17.40;78.60;;;;;;10365285;28;20049;-59
2022/10/16 20:59:17;;;;;;;18.67;17.08;;;17.40;78.60;;;;;;10363658;28;20030;-59
2022/10/16 21:04:18;;;;;;;19.33;17.73;;;17.40;78.50;;;;;;10363484;28;20114;-59
2022/10/16 21:09:18;;;;;;;19.17;17.42;;;17.40;78.50;;;;;;10373106;28;20125;-59
2022/10/16 21:14:20;;;;;;;18.88;17.10;;;17.40;78.50;;;;;;10362582;28;20057;-59
2022/10/16 21:19:21;;;;;;;16.90;15.30;;;17.40;78.40;;;;;;10363132;28;20057;-60
2022/10/16 21:24:22;;;;;;;16.73;15.23;;;17.40;78.40;;;;;;10373261;28;20466;-60
2022/10/16 21:29:22;;;;;;;16.05;14.75;;;17.40;78.40;;;;;;10367117;28;20105;-60
2022/10/16 21:34:23;;;;;;;16.27;14.70;;;17.40;78.30;;;;;;10363992;28;20034;-59
2022/10/16 21:39:24;;;;;;;14.65;13.35;;;17.40;78.60;;;;;;10361665;28;20054;-59
2022/10/16 21:44:25;;;;;;;15.30;13.75;;;17.40;78.90;;;;;;10375215;28;20125;-59
2022/10/16 21:49:26;;;;;;;15.68;13.80;;;17.40;78.20;;;;;;10346310;28;20145;-60
2022/10/16 21:54:26;;;;;;;15.05;13.55;;;17.40;78.20;;;;;;10361564;28;20069;-59
2022/10/16 21:59:27;;;;;;;15.77;14.20;;;17.40;78.20;;;;;;10362045;28;20108;-59
2022/10/16 22:04:28;;;;;;;14.82;13.52;;;17.40;78.20;;;;;;10356508;28;20022;-59
2022/10/16 22:09:28;;;;;;;13.40;12.15;;;17.40;78.20;;;;;;10372535;28;20030;-60
2022/10/16 22:14:29;;;;;;;13.80;12.43;;;17.40;78.10;;;;;;10361901;28;20112;-59
2022/10/16 22:19:30;;;;;;;14.48;13.18;;;17.40;78.00;;;;;;10362023;28;20025;-60
2022/10/16 22:24:31;;;;;;;13.35;12.07;;;17.40;78.00;;;;;;10361469;28;20022;-58
2022/10/16 22:29:32;;;;;;;12.57;10.88;;;17.40;78.00;;;;;;10363254;28;20010;-59
2022/10/16 22:34:33;;;;;;;12.70;11.55;;;17.30;77.90;;;;;;10391616;28;20172;-59
2022/10/16 22:39:33;;;;;;;11.55;10.57;;;17.40;77.90;;;;;;10359984;28;20022;-59
2022/10/16 22:44:34;;;;;;;10.93;9.93;;;17.40;77.90;;;;;;10360875;28;20113;-59
2022/10/16 22:49:35;;;;;;;11.43;10.40;;;17.40;77.80;;;;;;10376643;28;20500;-59
2022/10/16 22:54:35;;;;;;;11.93;10.93;;;17.40;77.80;;;;;;10368474;28;20064;-59
2022/10/16 22:59:36;;;;;;;11.75;10.85;;;17.30;77.70;;;;;;10382760;28;20029;-59
2022/10/16 23:04:37;;;;;;;11.07;10.00;;;17.30;77.70;;;;;;10367970;28;20129;-59
2022/10/16 23:09:37;;;;;;;9.68;8.75;;;17.30;77.70;;;;;;10378982;28;20101;-59
2022/10/16 23:14:39;;;;;;;11.20;10.20;;;17.30;77.70;;;;;;10367854;28;20010;-59
2022/10/16 23:19:39;;;;;;;10.18;9.18;;;17.30;77.60;;;;;;10367549;28;20543;-59
2022/10/16 23:24:40;;;;;;;10.20;9.10;;;17.30;77.60;;;;;;10367181;28;20032;-58
2022/10/16 23:29:40;;;;;;;10.32;9.32;;;17.30;77.60;;;;;;10383476;28;20121;-59
2022/10/16 23:34:41;;;;;;;9.30;8.43;;;17.30;77.60;;;;;;10367419;28;20046;-61
2022/10/16 23:39:42;;;;;;;9.30;8.38;;;17.30;77.50;;;;;;10370494;28;20090;-59
2022/10/16 23:44:42;;;;;;;9.13;8.23;;;17.30;77.50;;;;;;10366298;28;20449;-59
2022/10/16 23:49:43;;;;;;;8.25;7.53;;;17.30;77.40;;;;;;10365801;28;20054;-60
2022/10/16 23:54:44;;;;;;;9.13;7.88;;;17.30;77.40;;;;;;10365751;28;20029;-59
2022/10/16 23:59:44;;;;;;;8.00;7.20;;;17.30;77.40;;;;;;10365634;28;20042;-60
